To NAV CANADA Home Page Login to a new session Search on AWWS site Feedback and Comments Disclaimer Vers la page française équivalente Tips FAQ What's new on the site To the Forecasts and Observations / NOTAM section To "File a Flight Plan" website Publications and other links Update of the User's profile FIC Telephone Numbers My Weather Data Folder Route Weather Data Regional Weather Data Local Weather Data To the Forecasts and Observations / NOTAM section
Request Generated 07/25/2016 at 06:12:21 UTC . Weather information available at that time is displayed.

METAR/TAF

If you find any discrepancies between the coded METAR/TAF and the plain language METAR/TAF please use the coded METAR/TAF. LWIS bulletins are not decoded in plain language.

VANCOUVER INTL/BC    (show WxCam)

METAR CYVR 250600Z 11003KT 30SM FEW150 20/15 A3001 RMK AC1 SLP162 DENSITY ALT 500FT=
METAR
LOCATION
CYVR - VANCOUVER INTL/BC
DATE - TIME
25 JULY 2016 - 0600 UTC
WIND
110 TRUE @ 3  KNOTS
VISIBILITY
30 STAT.  MILES
RUNWAY VISUAL RANGE
WEATHER
CLOUDINESS
FEW CLOUDS (1/8 - 2/8) 15000  FT
TEMP / DEWPOINT
20 C / 15 C
ALTIMETER
30.01 IN HG
RECENT WEATHER
WIND SHEAR

METAR CYVR 250500Z 17003KT 30SM FEW150 20/16 A3001 RMK AC1 SLP164 DENSITY ALT 500FT=
METAR
LOCATION
CYVR - VANCOUVER INTL/BC
DATE - TIME
25 JULY 2016 - 0500 UTC
WIND
170 TRUE @ 3  KNOTS
VISIBILITY
30 STAT.  MILES
RUNWAY VISUAL RANGE
WEATHER
CLOUDINESS
FEW CLOUDS (1/8 - 2/8) 15000  FT
TEMP / DEWPOINT
20 C / 16 C
ALTIMETER
30.01 IN HG
RECENT WEATHER
WIND SHEAR

METAR CYVR 250400Z 21003KT 30SM FEW120 FEW160 21/15 A3000 RMK AC1AC1 TR CI CONTRAILS SLP161 DENSITY ALT 500FT=
METAR
LOCATION
CYVR - VANCOUVER INTL/BC
DATE - TIME
25 JULY 2016 - 0400 UTC
WIND
210 TRUE @ 3  KNOTS
VISIBILITY
30 STAT.  MILES
RUNWAY VISUAL RANGE
WEATHER
CLOUDINESS
FEW CLOUDS (1/8 - 2/8) 12000  FT
FEW CLOUDS (1/8 - 2/8) 16000  FT
TEMP / DEWPOINT
21 C / 15 C
ALTIMETER
30.00 IN HG
RECENT WEATHER
WIND SHEAR

TAF CYVR 250538Z 2506/2612 VRB03KT P6SM FEW150 BECMG 2508/2510 08006KT FM251800 27008KT P6SM FEW150 BECMG 2602/2604 VRB03KT RMK NXT FCST BY 250900Z=
TAF
LOCATION

CYVR - VANCOUVER INTL/BC
VALIDITY [UTC]
25 JUL - 0538 to
26 JUL - 1200
 
TIMES
[UTC]
WIND
[DEGREES TRUE]
VISIBILITY
[STAT. MILES]
WEATHER
CLOUDINESS
[FEET AGL]
 
25 JUL - 0600 to
25 JUL - 1800
VARIABLE @ 3 KNOTS
6+
NIL
15000 FEW
BECOMING
25 JUL - 0800 to
25 JUL - 1000
80 @ 6 KNOTS
 
 
 
 
25 JUL - 1800 to
26 JUL - 1200
270 @ 8 KNOTS
6+
NIL
15000 FEW
BECOMING
26 JUL - 0200 to
26 JUL - 0400
VARIABLE @ 3 KNOTS
 
 
 
REMARKS
THE NEXT FORECAST WILL BE ISSUED BY 0900 UTC ON DAY 25


Your time UTC time
Weather data provided by Environment Canada and NAV CANADA